LIRZ

Perugia San Francesco d'Assisi – Umbria International Airport

Perugia, Italy
TAF LIRZ 192300Z 2000/2024 VRB06KT 9999 SCT040 BECMG 2008/2010 08010KT TEMPO 2012/2017 TSRA
Issued Valid From Valid To
Sep-19 @ 23:00 UTC
(2 hours ago)
Sep-20 @ 00:00 UTC
(an hour ago)
Sep-21 @ 00:00 UTC
(in 23 hours)
Sep-20 @ 00:00 to Sep-20 @ 08:00
TAF LIRZ 192300Z 2000/2024 VRB06KT 9999 SCT040
Wind Visibility Clouds
Variable at 6 knots 10,000+ meters
  • Scattered at 4,000' AGL
Becoming Sep-20 @ 08:00 to Sep-21 @ 00:00
BECMG 2008/2010 08010KT
Wind Visibility Clouds
80° at 10 knots 10,000+ meters
  • Scattered at 4,000' AGL
Temporary Sep-20 @ 12:00 to Sep-20 @ 17:00
TEMPO 2012/2017 TSRA
Conditions
  • Thunderstorm
  • Rain
TAF LIRZ 192300Z 2000/2024 VRB06KT 9999 SCT040 BECMG 2008/2010 08010KT TEMPO 2012/2017 TSRA
Issued Sep-19 @ 23:00 UTC
(2 hours ago)
Valid From Sep-20 @ 00:00 UTC
(an hour ago)
Valid To Sep-21 @ 00:00 UTC
(in 23 hours)
Sep-20 @ 00:00 - Sep-20 @ 08:00
Wind Visibility
Variable at 6 knots 10,000+ meters
Clouds
  • Scattered at 4,000' AGL
Becoming Sep-20 @ 08:00 - Sep-21 @ 00:00
Wind Visibility
80° at 10 knots 10,000+ meters
Clouds
  • Scattered at 4,000' AGL
Temporary Sep-20 @ 12:00 - Sep-20 @ 17:00
Conditions
  • Thunderstorm
  • Rain